createdAt,value
2022-10-11T00:01:41.293Z,12.20
2022-10-11T00:04:07.854Z,12.19
2022-10-11T00:06:34.377Z,12.15
2022-10-11T00:09:00.844Z,12.10
2022-10-11T00:11:27.333Z,12.15
2022-10-11T00:13:53.852Z,12.03
2022-10-11T00:16:20.610Z,11.85
2022-10-11T00:18:47.119Z,11.87
2022-10-11T00:21:15.917Z,12.01
2022-10-11T00:23:43.309Z,12.14
2022-10-11T00:26:11.189Z,12.11
2022-10-11T00:28:38.432Z,12.01
2022-10-11T00:31:10.384Z,11.93
2022-10-11T00:33:37.098Z,12.07
2022-10-11T00:36:04.289Z,12.08
2022-10-11T00:38:32.108Z,12.27
2022-10-11T00:40:59.880Z,12.35
2022-10-11T00:43:30.109Z,12.42
2022-10-11T00:45:56.489Z,12.33
2022-10-11T00:48:44.479Z,12.19
2022-10-11T00:51:24.012Z,12.03
2022-10-11T00:53:52.023Z,11.95
2022-10-11T00:56:27.848Z,11.83
2022-10-11T00:58:57.496Z,11.95
2022-10-11T01:01:24.286Z,11.88
2022-10-11T01:03:50.795Z,11.90
2022-10-11T01:06:17.292Z,11.93
2022-10-11T01:08:44.350Z,12.03
2022-10-11T01:11:17.305Z,12.06
2022-10-11T01:14:29.001Z,12.04
2022-10-11T01:17:16.123Z,11.88
2022-10-11T01:20:18.934Z,11.96
2022-10-11T01:23:07.272Z,11.81
2022-10-11T01:25:57.028Z,11.79
2022-10-11T01:28:41.463Z,11.98
2022-10-11T01:31:22.406Z,11.91
2022-10-11T01:34:24.717Z,11.94
2022-10-11T01:37:04.007Z,11.98
2022-10-11T01:39:40.736Z,12.00
2022-10-11T01:42:10.885Z,11.94
2022-10-11T01:44:39.313Z,12.01
2022-10-11T01:47:06.077Z,11.89
2022-10-11T01:49:32.608Z,11.92
2022-10-11T01:52:03.469Z,11.75
2022-10-11T01:55:04.006Z,11.85
2022-10-11T01:58:01.275Z,12.05
2022-10-11T02:00:35.217Z,12.04
2022-10-11T02:03:20.383Z,12.06
2022-10-11T02:06:12.349Z,12.16
2022-10-11T02:08:51.665Z,12.20
2022-10-11T02:11:31.808Z,12.18
2022-10-11T02:14:16.320Z,12.11
2022-10-11T02:16:47.656Z,12.08
2022-10-11T02:19:18.625Z,12.02
2022-10-11T02:21:52.363Z,11.87
2022-10-11T02:24:31.029Z,11.92
2022-10-11T02:27:00.049Z,11.90
2022-10-11T02:29:30.059Z,11.73
2022-10-11T02:31:58.760Z,11.71
2022-10-11T02:34:31.377Z,11.68
2022-10-11T02:37:16.321Z,11.74
2022-10-11T02:39:51.722Z,11.72
2022-10-11T02:42:26.416Z,11.59
2022-10-11T02:45:17.488Z,11.57
2022-10-11T02:47:44.717Z,11.50
2022-10-11T02:50:12.899Z,11.52
2022-10-11T02:52:39.740Z,11.50
2022-10-11T02:55:07.308Z,11.52
2022-10-11T02:57:33.958Z,11.37
2022-10-11T03:00:00.390Z,11.32
2022-10-11T03:02:26.857Z,11.30
2022-10-11T03:04:53.330Z,11.22
2022-10-11T03:07:19.775Z,11.31
2022-10-11T03:09:46.352Z,11.33
2022-10-11T03:12:12.781Z,11.27
2022-10-11T03:14:39.259Z,11.25
2022-10-11T03:17:30.922Z,11.19
2022-10-11T03:19:52.341Z,11.23
2022-10-11T03:22:18.820Z,11.11
2022-10-11T03:24:45.331Z,11.08
2022-10-11T03:27:11.891Z,11.12
2022-10-11T03:29:38.437Z,10.89
2022-10-11T03:32:05.581Z,10.81
2022-10-11T03:34:32.041Z,10.67
2022-10-11T03:36:58.513Z,10.88
2022-10-11T03:39:24.981Z,10.80
2022-10-11T03:41:51.446Z,10.73
2022-10-11T03:44:17.926Z,10.83
2022-10-11T03:46:44.358Z,10.46
2022-10-11T03:49:10.815Z,10.44
2022-10-11T03:51:37.313Z,10.31
2022-10-11T03:54:03.834Z,10.31
2022-10-11T03:56:30.317Z,10.45
2022-10-11T03:58:56.827Z,10.50
2022-10-11T04:01:23.276Z,10.43
2022-10-11T04:03:49.842Z,10.18
2022-10-11T04:06:16.297Z,10.27
2022-10-11T04:08:42.824Z,10.12
2022-10-11T04:11:09.273Z,10.16
2022-10-11T04:13:36.352Z,10.14
2022-10-11T04:16:03.118Z,10.13
2022-10-11T04:20:56.400Z,10.13
2022-10-11T04:23:22.873Z,9.89
2022-10-11T04:25:49.293Z,10.06
2022-10-11T04:28:15.819Z,10.08
2022-10-11T04:30:42.307Z,9.96
2022-10-11T04:33:11.278Z,9.99
2022-10-11T04:35:37.801Z,9.97
2022-10-11T04:38:04.311Z,10.08
2022-10-11T04:40:30.770Z,9.96
2022-10-11T04:42:57.262Z,9.96
2022-10-11T04:45:23.776Z,9.85
2022-10-11T04:47:50.292Z,9.88
2022-10-11T04:50:16.850Z,9.81
2022-10-11T04:52:43.369Z,9.85
2022-10-11T04:55:10.945Z,9.79
2022-10-11T04:57:37.378Z,9.78
2022-10-11T05:00:04.960Z,9.77
2022-10-11T05:02:31.470Z,9.83
2022-10-11T05:04:58.451Z,9.81
2022-10-11T05:07:25.038Z,9.64
2022-10-11T05:09:51.497Z,9.47
2022-10-11T05:12:17.940Z,9.49
2022-10-11T05:14:44.490Z,9.57
2022-10-11T05:17:10.955Z,9.82
2022-10-11T05:19:37.520Z,9.75
2022-10-11T05:22:03.969Z,9.77
2022-10-11T05:24:30.644Z,9.77
2022-10-11T05:27:02.352Z,9.53
2022-10-11T05:29:29.731Z,9.74
2022-10-11T05:31:56.221Z,9.50
2022-10-11T05:34:22.717Z,9.42
2022-10-11T05:36:49.165Z,9.44
2022-10-11T05:39:15.764Z,9.35
2022-10-11T05:41:42.246Z,9.50
2022-10-11T05:44:08.994Z,9.73
2022-10-11T05:46:35.470Z,9.60
2022-10-11T05:49:01.911Z,9.66
2022-10-11T05:51:28.410Z,9.66
2022-10-11T05:53:54.909Z,9.58
2022-10-11T05:56:24.469Z,9.41
2022-10-11T05:58:52.025Z,9.62
2022-10-11T06:01:25.279Z,9.42
2022-10-11T06:03:52.417Z,9.23
2022-10-11T06:06:19.691Z,9.54
2022-10-11T06:08:47.093Z,9.48
2022-10-11T06:11:16.338Z,9.54
2022-10-11T06:13:43.644Z,9.52
2022-10-11T06:16:11.095Z,9.29
2022-10-11T06:18:37.609Z,9.28
2022-10-11T06:21:04.353Z,9.42
2022-10-11T06:23:31.039Z,9.42
2022-10-11T06:26:02.914Z,9.51
2022-10-11T06:28:29.966Z,9.53
2022-10-11T06:30:56.613Z,9.65
2022-10-11T06:33:23.670Z,9.47
2022-10-11T06:35:50.524Z,9.50
2022-10-11T06:38:17.024Z,9.40
2022-10-11T06:40:43.503Z,9.52
2022-10-11T06:43:09.956Z,9.45
2022-10-11T06:45:36.497Z,9.74
2022-10-11T06:48:05.564Z,9.68
2022-10-11T06:50:58.106Z,9.78
2022-10-11T06:53:19.229Z,9.67
2022-10-11T06:55:45.702Z,10.34
2022-10-11T06:58:12.135Z,10.33
2022-10-11T07:00:38.633Z,10.32
2022-10-11T07:03:05.123Z,10.31
2022-10-11T07:05:32.945Z,10.23
2022-10-11T07:07:59.382Z,10.35
2022-10-11T07:10:26.078Z,10.16
2022-10-11T07:12:52.624Z,10.24
2022-10-11T07:15:19.121Z,9.80
2022-10-11T07:17:45.696Z,9.84
2022-10-11T07:20:12.359Z,10.03
2022-10-11T07:22:38.785Z,10.18
2022-10-11T07:25:05.813Z,10.35
2022-10-11T07:27:32.376Z,10.16
2022-10-11T07:29:58.874Z,10.37
2022-10-11T07:32:25.440Z,10.53
2022-10-11T07:34:51.920Z,10.39
2022-10-11T07:37:18.370Z,10.65
2022-10-11T07:39:44.840Z,10.83
2022-10-11T07:42:11.302Z,10.56
2022-10-11T07:44:37.757Z,10.81
2022-10-11T07:47:08.915Z,10.96
2022-10-11T07:49:36.798Z,11.28
2022-10-11T07:52:03.365Z,11.53
2022-10-11T07:54:29.873Z,11.43
2022-10-11T07:56:56.373Z,11.30
2022-10-11T07:59:22.874Z,11.25
2022-10-11T08:01:49.630Z,11.49
2022-10-11T08:04:16.258Z,11.36
2022-10-11T08:06:42.719Z,11.07
2022-10-11T08:09:09.431Z,11.15
2022-10-11T08:11:37.319Z,10.99
2022-10-11T08:14:08.619Z,11.20
2022-10-11T08:16:36.411Z,10.98
2022-10-11T08:19:03.351Z,10.87
2022-10-11T08:21:30.449Z,10.74
2022-10-11T08:23:57.065Z,10.68
2022-10-11T08:26:24.084Z,10.67
2022-10-11T08:28:50.650Z,11.12
2022-10-11T08:31:17.526Z,11.12
2022-10-11T08:33:44.366Z,11.16
2022-10-11T08:36:12.030Z,11.34
2022-10-11T08:38:39.025Z,11.27
2022-10-11T08:41:29.461Z,11.00
2022-10-11T08:44:24.221Z,11.07
2022-10-11T08:47:00.524Z,11.57
2022-10-11T08:49:32.467Z,11.55
2022-10-11T08:52:04.526Z,11.46
2022-10-11T08:55:11.447Z,11.45
2022-10-11T08:57:40.029Z,11.48
2022-10-11T09:00:15.126Z,11.36
2022-10-11T09:03:09.043Z,11.43
2022-10-11T09:05:58.448Z,11.70
2022-10-11T09:08:43.592Z,11.88
2022-10-11T09:11:30.170Z,11.84
2022-10-11T09:14:22.873Z,11.86
2022-10-11T09:17:08.449Z,11.33
2022-10-11T09:19:52.224Z,11.37
2022-10-11T09:22:38.928Z,11.41
2022-10-11T09:25:22.982Z,11.31
2022-10-11T09:28:10.796Z,11.54
2022-10-11T09:30:46.552Z,11.60
2022-10-11T09:33:24.520Z,11.73
2022-10-11T09:35:52.081Z,11.84
2022-10-11T09:38:41.029Z,11.96
2022-10-11T09:41:13.429Z,11.95
2022-10-11T09:43:40.162Z,11.90
2022-10-11T09:46:22.429Z,12.06
2022-10-11T09:48:50.115Z,12.31
2022-10-11T09:51:23.737Z,12.37
2022-10-11T09:53:53.336Z,12.29
2022-10-11T09:56:20.675Z,12.35
2022-10-11T09:58:47.210Z,12.42
2022-10-11T10:01:24.338Z,13.02
2022-10-11T10:04:09.572Z,12.91
2022-10-11T10:06:36.821Z,13.13
2022-10-11T10:09:26.176Z,13.98
2022-10-11T10:11:54.989Z,14.45
2022-10-11T10:14:30.189Z,14.89
2022-10-11T10:17:14.459Z,14.85
2022-10-11T10:19:50.029Z,13.83
2022-10-11T10:22:23.323Z,13.73
2022-10-11T10:24:51.792Z,13.76
2022-10-11T10:27:22.600Z,13.38
2022-10-11T10:30:07.528Z,12.88
2022-10-11T10:32:47.559Z,13.29
2022-10-11T10:35:49.307Z,13.11
2022-10-11T10:38:26.778Z,13.21
2022-10-11T10:40:58.753Z,13.18
2022-10-11T10:43:29.744Z,13.02
2022-10-11T10:46:11.468Z,13.01
2022-10-11T10:49:23.630Z,12.87
2022-10-11T10:51:51.317Z,12.75
2022-10-11T10:54:24.986Z,13.14
2022-10-11T10:57:13.187Z,13.70
2022-10-11T11:00:04.254Z,13.82
2022-10-11T11:02:50.617Z,13.69
2022-10-11T11:05:41.431Z,13.96
2022-10-11T11:08:44.804Z,14.40
2022-10-11T11:11:29.652Z,15.10
2022-10-11T11:14:14.873Z,14.79
2022-10-11T11:17:09.193Z,14.81
2022-10-11T11:20:14.561Z,15.08
2022-10-11T11:23:10.101Z,15.43
2022-10-11T11:25:58.339Z,15.70
2022-10-11T11:28:33.847Z,16.46
2022-10-11T11:31:11.758Z,16.52
2022-10-11T11:33:48.520Z,16.34
2022-10-11T11:36:23.384Z,16.68
2022-10-11T11:38:59.737Z,16.83
2022-10-11T11:41:30.795Z,16.97
2022-10-11T11:44:03.793Z,17.13
2022-10-11T11:46:40.214Z,17.44
2022-10-11T11:49:33.228Z,17.68
2022-10-11T11:52:00.555Z,17.54
2022-10-11T11:54:28.294Z,17.28
2022-10-11T11:57:18.536Z,17.18
2022-10-11T12:00:14.642Z,17.77
2022-10-11T12:02:57.164Z,18.63
2022-10-11T12:05:27.875Z,18.59
2022-10-11T12:08:02.143Z,19.34
2022-10-11T12:11:04.389Z,19.79
2022-10-11T12:13:38.953Z,18.83
2022-10-11T12:16:12.229Z,17.86
2022-10-11T12:18:57.167Z,18.19
2022-10-11T12:21:35.284Z,17.65
2022-10-11T12:24:20.157Z,17.91
2022-10-11T12:26:49.162Z,17.72
2022-10-11T12:29:18.682Z,17.73
2022-10-11T12:31:51.231Z,17.61
2022-10-11T12:34:34.909Z,17.49
2022-10-11T12:37:19.625Z,17.58
2022-10-11T12:39:48.949Z,16.45
2022-10-11T12:42:35.355Z,16.51
2022-10-11T12:45:10.953Z,16.62
2022-10-11T12:47:44.821Z,16.82
2022-10-11T12:50:39.142Z,16.95
2022-10-11T12:53:17.712Z,17.04
2022-10-11T12:56:01.987Z,16.49
2022-10-11T12:58:41.136Z,16.30
2022-10-11T13:01:34.801Z,15.49
2022-10-11T13:04:08.440Z,15.66
2022-10-11T13:06:47.281Z,15.36
2022-10-11T13:09:24.915Z,15.34
2022-10-11T13:11:56.908Z,15.43
2022-10-11T13:14:26.028Z,15.19
2022-10-11T13:17:04.789Z,15.30
2022-10-11T13:19:33.962Z,15.17
2022-10-11T13:22:06.745Z,15.20
2022-10-11T13:24:39.899Z,15.18
2022-10-11T13:27:07.896Z,15.22
2022-10-11T13:29:40.338Z,14.72
2022-10-11T13:32:16.478Z,15.19
2022-10-11T13:34:46.867Z,15.07
2022-10-11T13:37:19.134Z,15.10
2022-10-11T13:39:47.038Z,14.98
2022-10-11T13:42:16.170Z,14.87
2022-10-11T13:44:44.616Z,14.89
2022-10-11T13:47:17.074Z,14.76
2022-10-11T13:49:53.248Z,14.33
2022-10-11T13:52:22.483Z,14.71
2022-10-11T13:55:03.949Z,14.62
2022-10-11T13:57:48.212Z,14.51
2022-10-11T14:00:14.687Z,14.71
2022-10-11T14:02:49.581Z,14.41
2022-10-11T14:05:27.172Z,14.39
2022-10-11T14:07:53.731Z,14.17
2022-10-11T14:10:22.195Z,14.34
2022-10-11T14:13:04.061Z,14.43
2022-10-11T14:15:37.523Z,14.46
2022-10-11T14:18:41.528Z,14.48
2022-10-11T14:21:20.301Z,14.33
2022-10-11T14:23:49.938Z,14.53
2022-10-11T14:26:18.942Z,14.22
2022-10-11T14:28:49.216Z,14.20
2022-10-11T14:31:15.719Z,14.16
2022-10-11T14:33:42.241Z,14.02
2022-10-11T14:36:09.917Z,13.93
2022-10-11T14:38:36.398Z,14.13
2022-10-11T14:41:02.830Z,14.08
2022-10-11T14:43:29.401Z,13.97
2022-10-11T14:45:55.885Z,13.75
2022-10-11T14:48:43.154Z,13.87
2022-10-11T14:51:13.057Z,13.60
2022-10-11T14:53:45.944Z,13.53
2022-10-11T14:56:17.744Z,13.62
2022-10-11T14:58:46.935Z,13.35
2022-10-11T15:01:14.122Z,13.54
2022-10-11T15:03:40.995Z,13.76
2022-10-11T15:06:16.038Z,13.74
2022-10-11T15:08:42.485Z,13.53
2022-10-11T15:11:11.125Z,13.45
2022-10-11T15:13:37.623Z,13.30
2022-10-11T15:16:04.520Z,13.29
2022-10-11T15:18:31.148Z,13.38
2022-10-11T15:20:58.170Z,13.19
2022-10-11T15:23:24.679Z,13.01
2022-10-11T15:25:51.249Z,13.16
2022-10-11T15:28:28.536Z,13.06
2022-10-11T15:30:55.291Z,12.92
2022-10-11T15:33:22.275Z,12.62
2022-10-11T15:35:48.737Z,12.71
2022-10-11T15:38:21.711Z,12.65
2022-10-11T15:40:49.062Z,12.61
2022-10-11T15:43:18.732Z,12.45
2022-10-11T15:46:14.981Z,12.20
2022-10-11T15:48:45.275Z,12.45
2022-10-11T15:51:14.914Z,12.31
2022-10-11T15:53:48.264Z,12.12
2022-10-11T15:56:23.237Z,11.99
2022-10-11T15:58:53.732Z,12.04
2022-10-11T16:01:20.846Z,11.90
2022-10-11T16:03:48.927Z,12.04
2022-10-11T16:06:18.839Z,11.88
2022-10-11T16:08:50.870Z,11.91
2022-10-11T16:11:17.617Z,11.96
2022-10-11T16:13:45.032Z,11.72
2022-10-11T16:16:12.457Z,11.75
2022-10-11T16:18:39.589Z,11.60
2022-10-11T16:21:11.031Z,11.36
2022-10-11T16:23:38.635Z,11.20
2022-10-11T16:26:09.058Z,11.30
2022-10-11T16:28:36.082Z,11.06
2022-10-11T16:31:07.885Z,11.09
2022-10-11T16:33:34.343Z,10.81
2022-10-11T16:36:20.803Z,10.59
2022-10-11T16:38:47.249Z,10.47
2022-10-11T16:41:13.716Z,10.48
2022-10-11T16:43:40.156Z,10.41
2022-10-11T16:46:06.984Z,10.39
2022-10-11T16:48:33.681Z,10.37
2022-10-11T16:51:08.067Z,9.98
2022-10-11T16:53:35.350Z,9.68
2022-10-11T16:56:09.472Z,9.50
2022-10-11T16:58:36.470Z,9.50
2022-10-11T17:01:08.058Z,9.45
2022-10-11T17:03:34.648Z,9.72
2022-10-11T17:06:01.242Z,9.90
2022-10-11T17:08:28.370Z,9.75
2022-10-11T17:10:57.898Z,9.35
2022-10-11T17:13:24.654Z,9.08
2022-10-11T17:15:51.187Z,9.23
2022-10-11T17:18:17.692Z,8.85
2022-10-11T17:20:44.374Z,8.72
2022-10-11T17:23:10.906Z,8.49
2022-10-11T17:25:43.016Z,8.54
2022-10-11T17:28:09.911Z,8.83
2022-10-11T17:30:36.579Z,9.06
2022-10-11T17:33:03.964Z,9.08
2022-10-11T17:35:32.102Z,8.66
2022-10-11T17:38:05.024Z,8.83
2022-10-11T17:40:32.528Z,8.64
2022-10-11T17:42:58.981Z,8.78
2022-10-11T17:45:25.497Z,8.50
2022-10-11T17:47:51.950Z,8.18
2022-10-11T17:50:18.417Z,7.84
2022-10-11T17:52:44.970Z,7.69
2022-10-11T17:55:11.488Z,7.63
2022-10-11T17:57:37.958Z,7.60
2022-10-11T18:00:05.808Z,7.61
2022-10-11T18:02:32.350Z,7.59
2022-10-11T18:04:58.854Z,7.51
2022-10-11T18:07:25.398Z,7.42
2022-10-11T18:09:51.860Z,7.35
2022-10-11T18:12:18.381Z,7.24
2022-10-11T18:14:44.804Z,7.28
2022-10-11T18:17:11.264Z,7.28
2022-10-11T18:19:37.843Z,7.48
2022-10-11T18:22:06.973Z,7.21
2022-10-11T18:24:34.184Z,7.11
2022-10-11T18:27:00.661Z,7.02
2022-10-11T18:29:27.172Z,6.92
2022-10-11T18:31:53.647Z,6.90
2022-10-11T18:34:20.106Z,6.95
2022-10-11T18:36:47.266Z,6.82
2022-10-11T18:39:14.646Z,6.74
2022-10-11T18:41:44.293Z,6.73
2022-10-11T18:44:14.045Z,6.70
2022-10-11T18:46:41.324Z,6.68
2022-10-11T18:49:08.750Z,6.58
2022-10-11T18:51:40.306Z,6.50
2022-10-11T18:54:08.288Z,6.41
2022-10-11T18:56:36.864Z,6.42
2022-10-11T18:59:04.659Z,6.43
2022-10-11T19:01:38.138Z,6.37
2022-10-11T19:04:06.013Z,6.29
2022-10-11T19:06:41.280Z,6.42
2022-10-11T19:09:11.377Z,6.29
2022-10-11T19:11:38.241Z,6.15
2022-10-11T19:14:07.851Z,6.11
2022-10-11T19:16:37.716Z,6.10
2022-10-11T19:19:05.486Z,6.03
2022-10-11T19:21:32.018Z,5.95
2022-10-11T19:23:58.479Z,5.85
2022-10-11T19:26:34.563Z,5.82
2022-10-11T19:29:07.859Z,5.82
2022-10-11T19:31:36.245Z,5.83
2022-10-11T19:34:02.999Z,5.81
2022-10-11T19:36:33.951Z,5.68
2022-10-11T19:39:03.990Z,5.74
2022-10-11T19:41:30.533Z,5.61
2022-10-11T19:43:59.867Z,5.66
2022-10-11T19:46:44.866Z,5.62
2022-10-11T19:49:17.435Z,5.87
2022-10-11T19:51:43.896Z,5.84
2022-10-11T19:54:13.453Z,5.96
2022-10-11T19:56:40.161Z,6.07
2022-10-11T19:59:06.890Z,6.02
2022-10-11T20:01:34.682Z,5.67
2022-10-11T20:04:18.772Z,5.42
2022-10-11T20:06:56.960Z,5.56
2022-10-11T20:09:29.432Z,5.33
2022-10-11T20:11:57.072Z,5.19
2022-10-11T20:14:23.698Z,5.36
2022-10-11T20:16:50.831Z,5.47
2022-10-11T20:19:18.186Z,5.27
2022-10-11T20:21:45.062Z,5.24
2022-10-11T20:24:11.821Z,5.39
2022-10-11T20:26:39.087Z,5.27
2022-10-11T20:29:06.218Z,5.13
2022-10-11T20:31:34.973Z,5.27
2022-10-11T20:34:04.116Z,5.46
2022-10-11T20:36:31.862Z,5.52
2022-10-11T20:38:59.712Z,5.53
2022-10-11T20:41:31.978Z,5.77
2022-10-11T20:43:59.716Z,5.68
2022-10-11T20:46:28.561Z,5.57
2022-10-11T20:49:01.586Z,5.57
2022-10-11T20:51:30.131Z,5.45
2022-10-11T20:53:56.779Z,5.54
2022-10-11T20:56:23.493Z,5.53
2022-10-11T20:58:52.365Z,5.05
2022-10-11T21:01:26.205Z,5.03
2022-10-11T21:03:53.401Z,5.15
2022-10-11T21:06:20.474Z,5.33
2022-10-11T21:08:47.027Z,5.20
2022-10-11T21:11:13.569Z,4.85
2022-10-11T21:13:40.604Z,4.92
2022-10-11T21:16:13.332Z,5.26
2022-10-11T21:18:40.456Z,5.02
2022-10-11T21:21:09.196Z,4.77
2022-10-11T21:23:35.815Z,4.66
2022-10-11T21:26:04.935Z,5.05
2022-10-11T21:28:31.836Z,5.21
2022-10-11T21:31:10.391Z,5.15
2022-10-11T21:33:37.796Z,4.91
2022-10-11T21:36:08.813Z,5.02
2022-10-11T21:38:36.178Z,4.79
2022-10-11T21:41:04.976Z,4.53
2022-10-11T21:43:31.555Z,4.42
2022-10-11T21:45:58.031Z,4.81
2022-10-11T21:48:24.524Z,4.81
2022-10-11T21:50:54.797Z,4.82
2022-10-11T21:53:21.500Z,4.81
2022-10-11T21:55:47.969Z,4.86
2022-10-11T21:58:14.517Z,5.00
2022-10-11T22:00:41.027Z,4.99
2022-10-11T22:03:07.624Z,4.91
2022-10-11T22:05:34.181Z,4.78
2022-10-11T22:08:00.629Z,4.86
2022-10-11T22:10:27.174Z,4.90
2022-10-11T22:12:53.769Z,4.37
2022-10-11T22:15:20.294Z,4.21
2022-10-11T22:17:47.033Z,4.07
2022-10-11T22:20:13.535Z,4.39
2022-10-11T22:22:39.994Z,4.33
2022-10-11T22:25:07.031Z,4.33
2022-10-11T22:27:33.483Z,4.43
2022-10-11T22:29:59.990Z,4.19
2022-10-11T22:32:26.478Z,4.52
2022-10-11T22:34:52.920Z,4.21
2022-10-11T22:37:19.516Z,4.02
2022-10-11T22:39:45.990Z,3.94
2022-10-11T22:42:12.455Z,3.86
2022-10-11T22:44:38.964Z,4.00
2022-10-11T22:47:05.535Z,3.83
2022-10-11T22:49:32.098Z,3.85
2022-10-11T22:51:58.562Z,4.03
2022-10-11T22:54:25.036Z,4.25
2022-10-11T22:56:51.577Z,4.44
2022-10-11T22:59:18.176Z,4.29
2022-10-11T23:01:44.648Z,4.41
2022-10-11T23:04:11.136Z,4.07
2022-10-11T23:06:37.699Z,4.10
2022-10-11T23:09:04.196Z,4.26
2022-10-11T23:11:30.666Z,4.36
2022-10-11T23:13:57.171Z,4.23
2022-10-11T23:16:23.649Z,4.05
2022-10-11T23:18:53.213Z,4.06
2022-10-11T23:21:20.229Z,4.30
2022-10-11T23:23:46.877Z,4.05
2022-10-11T23:26:16.852Z,4.13
2022-10-11T23:28:44.189Z,4.22
2022-10-11T23:31:13.621Z,4.13
2022-10-11T23:33:40.246Z,4.13
2022-10-11T23:36:14.110Z,3.74
2022-10-11T23:38:40.647Z,3.61
2022-10-11T23:41:07.182Z,3.68
2022-10-11T23:43:33.802Z,3.61
2022-10-11T23:46:00.608Z,3.49
2022-10-11T23:48:27.067Z,3.70
2022-10-11T23:50:53.562Z,3.84
2022-10-11T23:53:20.138Z,4.01
2022-10-11T23:55:46.683Z,4.07
2022-10-11T23:58:13.252Z,4.04
